Sølager Airfiield

DK-0016 · Capital Region, 丹麦

使用的METAR站距离机场42 km。
罗盘
风向 的 风向 090° Sølager Airfiield 8/26
风: 7 kt, 3 beaufort

7 kt

2 kt
改变
0 ft 1.000 2.000 3.000 4.000 5.000
VV 200
METAR EKRK 020050Z AUTO 09007KT 0100 R11/0400N R29/0400N FG VV002 04/04 Q1007

METAR Sølager Airfiield - DK-0016

Sølager Airfiield是,丹麦中的小机场。 该机场位于纬度55,94996和经度11,92505。 该机场有一条跑道: 8/26. 这个机场没有ICAO代码,我们使用DK-0016作为参考。 机场在Kobenhavn FIR中。

该航空气象观测是针对Copenhagen Roskilde Airport在2024年3月2日 01:50, 当地时间进行的。

机场观察

风向为090°,速度为7 kt。

可见度为100 m。 跑道11的能见度为400 m 和 没有趋势。 跑道29的能见度为400 m 和 没有趋势。

垂直能见度为200 ft 破损或更高的上限为200 ft。

当前天气为多雾路段。 温度为4 °C,阵风为-1 °C。 露点为4 °C,相对湿度为100%。 海平面上的气压为1007 hPa (QNH)。

白天

今天,太阳从06:59升起,在17:49降落。 这适用于Sølager Airfiield,世界夏令时可能有所不同。 当地时间与世界标准时间之间的时差为+1 小时。 当前,没有夏令时有效。

公司介绍

我们没有关于这个机场的公司信息。

体会

到Vliegles.nl去找飞行课程,跳伞和其他飞行体验。 浏览页面,了解Sølager Airfiield附近所有可用的活动。 你也可以使用搜索功能来寻找你所在地附近的特定飞行课程、跳伞或其他飞行体验。

警示语

垂直能见度为200 ft。
跑道11处的能见度为400 m 和 没有趋势。
跑道29处的能见度为400 m 和 没有趋势。

跑道

Id 标题 侧风 逆风 侧风 %
8/26 077°-257° 2 kt 7 kt 22 %

逆风成分最大的方向会被突出显示,并用于横风计算。 这并不一定意味着这个方向在使用。

乌云

200 ft VV 垂直能见度

温度 & 天气

天气 多雾路段
温度 4 °C
露点 4 °C
相对湿度 100%
风寒 -1 °C
Kp-index 1 (0-9)

白天

日出
06:58 (4:48)
中午
12:23
日落
17:48

小工具

你想在你的网站上有一个关于Sølager Airfiield的当前航空天气(METAR)的小部件吗?

显示HTML代码
?>